createdAt,value
2022-11-22T00:00:42.663Z,5.33
2022-11-22T00:03:09.907Z,5.90
2022-11-22T00:05:37.101Z,5.83
2022-11-22T00:08:05.306Z,5.13
2022-11-22T00:10:32.862Z,4.50
2022-11-22T00:13:00.120Z,3.93
2022-11-22T00:15:27.524Z,4.30
2022-11-22T00:17:54.640Z,4.50
2022-11-22T00:20:21.857Z,4.67
2022-11-22T00:22:49.017Z,4.00
2022-11-22T00:25:16.282Z,4.37
2022-11-22T00:27:43.494Z,3.70
2022-11-22T00:30:11.094Z,3.20
2022-11-22T00:32:38.328Z,4.00
2022-11-22T00:35:06.130Z,3.80
2022-11-22T00:37:33.732Z,3.60
2022-11-22T00:40:00.842Z,4.47
2022-11-22T00:42:28.289Z,3.90
2022-11-22T00:44:55.502Z,3.17
2022-11-22T00:47:22.767Z,3.70
2022-11-22T00:49:49.947Z,3.70
2022-11-22T00:52:17.163Z,3.90
2022-11-22T00:54:50.111Z,4.50
2022-11-22T00:57:20.321Z,4.47
2022-11-22T00:59:47.590Z,3.97
2022-11-22T01:02:14.762Z,3.90
2022-11-22T01:04:41.924Z,3.67
2022-11-22T01:07:09.323Z,3.70
2022-11-22T01:09:36.513Z,3.90
2022-11-22T01:12:03.942Z,3.80
2022-11-22T01:14:31.091Z,3.67
2022-11-22T01:16:58.322Z,5.10
2022-11-22T01:19:25.427Z,4.10
2022-11-22T01:21:52.847Z,3.73
2022-11-22T01:24:19.986Z,3.70
2022-11-22T01:26:47.288Z,3.53
2022-11-22T01:29:15.334Z,3.57
2022-11-22T01:31:42.526Z,3.30
2022-11-22T01:34:09.811Z,3.57
2022-11-22T01:36:37.080Z,3.47
2022-11-22T01:39:04.388Z,3.40
2022-11-22T01:41:31.580Z,3.80
2022-11-22T01:43:58.796Z,3.20
2022-11-22T01:46:37.395Z,3.10
2022-11-22T01:49:17.883Z,2.80
2022-11-22T01:51:48.136Z,3.47
2022-11-22T01:54:22.684Z,3.53
2022-11-22T01:56:54.760Z,4.07
2022-11-22T01:59:26.278Z,4.53
2022-11-22T02:01:54.245Z,4.80
2022-11-22T02:04:23.922Z,4.20
2022-11-22T02:06:54.081Z,3.80
2022-11-22T02:09:22.052Z,4.73
2022-11-22T02:11:53.906Z,3.67
2022-11-22T02:14:25.702Z,3.77
2022-11-22T02:16:52.953Z,3.80
2022-11-22T02:19:42.118Z,2.93
2022-11-22T02:22:27.978Z,3.03
2022-11-22T02:25:02.581Z,3.13
2022-11-22T02:27:29.798Z,3.50
2022-11-22T02:29:56.914Z,3.67
2022-11-22T02:32:24.078Z,3.70
2022-11-22T02:34:52.071Z,3.77
2022-11-22T02:37:29.659Z,3.80
2022-11-22T02:40:00.384Z,3.73
2022-11-22T02:42:30.226Z,4.07
2022-11-22T02:44:57.366Z,4.13
2022-11-22T02:47:24.573Z,3.47
2022-11-22T02:49:53.889Z,4.20
2022-11-22T02:52:21.111Z,3.83
2022-11-22T02:54:48.239Z,4.13
2022-11-22T02:57:15.458Z,3.67
2022-11-22T02:59:42.651Z,3.60
2022-11-22T03:02:09.823Z,3.50
2022-11-22T03:04:36.983Z,3.50
2022-11-22T03:07:04.603Z,3.60
2022-11-22T03:09:32.640Z,4.00
2022-11-22T03:12:00.053Z,3.80
2022-11-22T03:14:27.301Z,3.60
2022-11-22T03:16:54.585Z,4.30
2022-11-22T03:19:21.967Z,3.50
2022-11-22T03:21:49.246Z,3.50
2022-11-22T03:24:16.811Z,3.60
2022-11-22T03:26:48.380Z,4.03
2022-11-22T03:29:17.948Z,3.60
2022-11-22T03:31:45.073Z,3.33
2022-11-22T03:34:12.864Z,3.50
2022-11-22T03:36:40.146Z,3.00
2022-11-22T03:39:07.695Z,2.50
2022-11-22T03:41:34.847Z,3.00
2022-11-22T03:44:02.199Z,3.70
2022-11-22T03:46:29.597Z,3.33
2022-11-22T03:48:56.751Z,3.20
2022-11-22T03:51:23.843Z,2.90
2022-11-22T03:53:51.043Z,3.30
2022-11-22T03:56:18.271Z,3.57
2022-11-22T03:58:45.419Z,2.90
2022-11-22T04:01:16.580Z,2.97
2022-11-22T04:03:44.175Z,3.10
2022-11-22T04:06:11.330Z,3.03
2022-11-22T04:08:38.470Z,2.60
2022-11-22T04:11:05.664Z,3.07
2022-11-22T04:13:51.169Z,3.57
2022-11-22T04:16:18.323Z,3.20
2022-11-22T04:18:45.523Z,3.27
2022-11-22T04:21:31.317Z,2.83
2022-11-22T04:24:16.696Z,3.27
2022-11-22T04:26:43.909Z,3.17
2022-11-22T04:29:11.104Z,3.67
2022-11-22T04:31:57.610Z,3.37
2022-11-22T04:34:24.821Z,3.53
2022-11-22T04:36:52.267Z,4.53
2022-11-22T04:39:19.557Z,4.43
2022-11-22T04:41:46.801Z,3.90
2022-11-22T04:44:32.583Z,3.97
2022-11-22T04:46:59.686Z,4.50
2022-11-22T04:49:27.082Z,4.43
2022-11-22T04:52:13.016Z,4.73
2022-11-22T04:54:40.178Z,4.30
2022-11-22T04:57:07.320Z,3.93
2022-11-22T04:59:34.502Z,3.90
2022-11-22T05:02:01.782Z,3.93
2022-11-22T05:04:29.019Z,3.83
2022-11-22T05:06:57.129Z,3.83
2022-11-22T05:09:24.531Z,3.67
2022-11-22T05:11:51.678Z,3.90
2022-11-22T05:14:18.794Z,4.43
2022-11-22T05:16:45.901Z,3.50
2022-11-22T05:19:13.014Z,3.80
2022-11-22T05:21:40.150Z,3.33
2022-11-22T05:24:07.617Z,3.10
2022-11-22T05:26:36.514Z,3.07
2022-11-22T05:29:06.329Z,3.73
2022-11-22T05:31:35.134Z,3.83
2022-11-22T05:34:02.290Z,3.10
2022-11-22T05:36:32.125Z,3.80
2022-11-22T05:38:59.314Z,3.00
2022-11-22T05:41:26.476Z,3.30
2022-11-22T05:43:57.447Z,3.23
2022-11-22T05:46:29.402Z,3.60
2022-11-22T05:48:58.116Z,4.07
2022-11-22T05:51:33.935Z,3.43
2022-11-22T05:54:03.033Z,5.20
2022-11-22T05:56:30.253Z,5.50
2022-11-22T05:58:57.383Z,4.37
2022-11-22T06:01:25.119Z,4.23
2022-11-22T06:03:52.813Z,4.73
2022-11-22T06:06:20.783Z,5.10
2022-11-22T06:08:48.603Z,6.20
2022-11-22T06:11:24.586Z,5.07
2022-11-22T06:13:57.649Z,5.77
2022-11-22T06:16:26.332Z,4.93
2022-11-22T06:18:54.187Z,5.40
2022-11-22T06:21:24.482Z,5.70
2022-11-22T06:23:53.775Z,5.40
2022-11-22T06:26:22.346Z,5.43
2022-11-22T06:28:50.366Z,6.13
2022-11-22T06:31:22.988Z,6.57
2022-11-22T06:33:50.521Z,6.50
2022-11-22T06:36:21.365Z,7.00
2022-11-22T06:38:48.894Z,7.07
2022-11-22T06:41:18.760Z,8.20
2022-11-22T06:43:49.412Z,7.67
2022-11-22T06:46:18.573Z,7.50
2022-11-22T06:48:46.084Z,7.70
2022-11-22T06:51:21.428Z,7.67
2022-11-22T06:53:49.748Z,7.30
2022-11-22T06:56:20.110Z,8.20
2022-11-22T06:58:48.176Z,7.57
2022-11-22T07:01:18.571Z,9.40
2022-11-22T07:03:46.783Z,9.50
2022-11-22T07:06:15.600Z,7.80
2022-11-22T07:08:43.524Z,8.20
2022-11-22T07:11:15.942Z,7.70
2022-11-22T07:13:43.349Z,8.50
2022-11-22T07:16:13.125Z,7.50
2022-11-22T07:18:40.572Z,6.77
2022-11-22T07:21:13.964Z,7.20
2022-11-22T07:23:43.650Z,8.10
2022-11-22T07:26:12.439Z,7.80
2022-11-22T07:28:39.669Z,14.03
2022-11-22T07:31:08.878Z,11.23
2022-11-22T07:33:36.204Z,8.97
2022-11-22T07:36:08.693Z,10.03
2022-11-22T07:38:36.241Z,9.63
2022-11-22T07:41:04.349Z,10.07
2022-11-22T07:43:32.116Z,9.80
2022-11-22T07:46:00.500Z,9.60
2022-11-22T07:48:27.626Z,8.60
2022-11-22T07:50:54.856Z,8.40
2022-11-22T07:53:21.997Z,9.20
2022-11-22T07:55:49.259Z,9.03
2022-11-22T07:58:16.413Z,8.23
2022-11-22T08:00:43.552Z,8.13
2022-11-22T08:03:14.311Z,10.37
2022-11-22T08:05:44.351Z,11.37
2022-11-22T08:08:11.721Z,12.03
2022-11-22T08:10:38.867Z,12.33
2022-11-22T08:13:06.229Z,13.47
2022-11-22T08:15:33.450Z,12.20
2022-11-22T08:18:00.643Z,11.57
2022-11-22T08:20:27.961Z,11.83
2022-11-22T08:22:55.161Z,16.70
2022-11-22T08:25:22.385Z,11.90
2022-11-22T08:27:49.560Z,13.10
2022-11-22T08:30:16.725Z,14.00
2022-11-22T08:32:43.898Z,22.37
2022-11-22T08:35:11.237Z,31.80
2022-11-22T08:37:38.476Z,26.80
2022-11-22T08:40:06.472Z,15.50
2022-11-22T08:42:33.615Z,19.03
2022-11-22T08:45:00.809Z,18.67
2022-11-22T08:47:27.974Z,12.30
2022-11-22T08:49:55.107Z,13.70
2022-11-22T08:52:22.194Z,9.70
2022-11-22T08:54:49.357Z,9.50
2022-11-22T08:57:16.507Z,8.87
2022-11-22T08:59:43.722Z,9.90
2022-11-22T09:02:11.098Z,8.50
2022-11-22T09:04:38.250Z,8.37
2022-11-22T09:09:52.618Z,10.10
2022-11-22T09:12:19.898Z,10.17
2022-11-22T09:14:47.303Z,11.10
2022-11-22T09:17:17.752Z,8.43
2022-11-22T09:19:45.699Z,8.47
2022-11-22T09:22:12.868Z,9.33
2022-11-22T09:24:40.141Z,9.47
2022-11-22T09:27:07.420Z,9.13
2022-11-22T09:29:34.574Z,10.97
2022-11-22T09:32:03.413Z,9.70
2022-11-22T09:34:30.634Z,9.93
2022-11-22T09:36:57.765Z,10.20
2022-11-22T09:39:24.927Z,9.63
2022-11-22T09:41:52.019Z,9.10
2022-11-22T09:44:57.263Z,9.47
2022-11-22T09:47:48.131Z,9.20
2022-11-22T09:50:38.105Z,9.20
2022-11-22T09:53:13.761Z,9.53
2022-11-22T09:55:56.155Z,9.50
2022-11-22T09:58:33.518Z,9.87
2022-11-22T10:01:27.589Z,8.67
2022-11-22T10:04:21.525Z,8.53
2022-11-22T10:07:21.509Z,9.60
2022-11-22T10:10:06.900Z,8.93
2022-11-22T10:12:41.905Z,9.50
2022-11-22T10:15:27.793Z,10.20
2022-11-22T10:18:00.564Z,9.90
2022-11-22T10:20:30.342Z,9.70
2022-11-22T10:22:58.798Z,9.20
2022-11-22T10:25:39.935Z,10.77
2022-11-22T10:28:33.503Z,8.97
2022-11-22T10:31:09.717Z,8.47
2022-11-22T10:34:03.486Z,9.23
2022-11-22T10:36:51.056Z,9.47
2022-11-22T10:39:40.758Z,10.27
2022-11-22T10:42:30.114Z,9.80
2022-11-22T10:45:22.050Z,9.40
2022-11-22T10:48:02.025Z,9.50
2022-11-22T10:50:48.233Z,9.57
2022-11-22T10:53:27.778Z,9.20
2022-11-22T10:55:57.666Z,9.63
2022-11-22T10:58:53.962Z,8.60
2022-11-22T11:01:49.657Z,8.27
2022-11-22T11:04:18.826Z,9.10
2022-11-22T11:07:17.186Z,10.20
2022-11-22T11:10:20.316Z,10.43
2022-11-22T11:13:13.465Z,11.50
2022-11-22T11:15:55.693Z,11.27
2022-11-22T11:19:10.751Z,11.37
2022-11-22T11:21:38.171Z,11.53
2022-11-22T11:24:15.058Z,11.70
2022-11-22T11:26:54.292Z,11.73
2022-11-22T11:29:24.274Z,11.30
2022-11-22T11:32:09.858Z,9.57
2022-11-22T11:34:38.761Z,10.90
2022-11-22T11:37:06.283Z,11.10
2022-11-22T11:39:36.276Z,10.80
2022-11-22T11:42:24.770Z,9.33
2022-11-22T11:44:52.179Z,8.30
2022-11-22T11:47:33.967Z,9.10
2022-11-22T11:50:01.247Z,8.40
2022-11-22T11:52:29.896Z,9.00
2022-11-22T11:55:02.085Z,9.07
2022-11-22T11:57:36.345Z,8.80
2022-11-22T12:00:06.633Z,8.80
2022-11-22T12:02:40.180Z,13.07
2022-11-22T12:05:26.914Z,12.07
2022-11-22T12:07:54.256Z,10.43
2022-11-22T12:10:31.156Z,11.87
2022-11-22T12:13:24.662Z,10.40
2022-11-22T12:16:33.060Z,11.57
2022-11-22T12:19:24.743Z,11.07
2022-11-22T12:22:03.912Z,12.00
2022-11-22T12:25:03.082Z,10.43
2022-11-22T12:27:27.284Z,11.67
2022-11-22T12:29:54.603Z,11.27
2022-11-22T12:32:30.027Z,9.97
2022-11-22T12:35:09.086Z,10.87
2022-11-22T12:38:03.679Z,10.13
2022-11-22T12:40:41.895Z,11.20
2022-11-22T12:43:18.819Z,10.17
2022-11-22T12:45:52.831Z,10.40
2022-11-22T12:48:45.899Z,9.30
2022-11-22T12:51:42.804Z,10.93
2022-11-22T12:54:16.312Z,10.60
2022-11-22T12:56:54.028Z,9.97
2022-11-22T12:59:28.519Z,10.90
2022-11-22T13:02:11.220Z,11.30
2022-11-22T13:04:50.747Z,10.00
2022-11-22T13:07:22.519Z,10.47
2022-11-22T13:09:55.803Z,9.90
2022-11-22T13:12:30.967Z,9.50
2022-11-22T13:15:00.219Z,10.57
2022-11-22T13:17:33.303Z,10.97
2022-11-22T13:20:15.064Z,10.67
2022-11-22T13:22:57.055Z,10.27
2022-11-22T13:25:45.540Z,8.70
2022-11-22T13:28:16.489Z,8.33
2022-11-22T13:31:06.670Z,8.13
2022-11-22T13:33:36.012Z,7.00
2022-11-22T13:36:25.086Z,7.20
2022-11-22T13:38:57.098Z,5.53
2022-11-22T13:41:48.145Z,5.10
2022-11-22T13:44:24.477Z,6.13
2022-11-22T13:47:04.550Z,6.13
2022-11-22T13:49:48.175Z,5.27
2022-11-22T13:52:15.840Z,5.90
2022-11-22T13:54:56.753Z,8.57
2022-11-22T13:57:36.854Z,7.23
2022-11-22T14:00:16.083Z,8.00
2022-11-22T14:03:11.458Z,5.83
2022-11-22T14:05:42.068Z,5.40
2022-11-22T14:08:40.367Z,5.90
2022-11-22T14:11:23.253Z,5.77
2022-11-22T14:14:08.839Z,5.13
2022-11-22T14:16:44.165Z,5.33
2022-11-22T14:19:11.241Z,4.90
2022-11-22T14:22:10.983Z,4.60
2022-11-22T14:24:56.790Z,6.10
2022-11-22T14:27:29.820Z,5.47
2022-11-22T14:30:15.511Z,5.37
2022-11-22T14:32:49.359Z,4.93
2022-11-22T14:35:29.188Z,4.70
2022-11-22T14:38:07.832Z,5.20
2022-11-22T14:40:40.329Z,4.57
2022-11-22T14:43:29.811Z,4.80
2022-11-22T14:46:37.179Z,9.70
2022-11-22T14:49:13.949Z,5.10
2022-11-22T14:51:42.238Z,5.50
2022-11-22T14:54:22.695Z,5.93
2022-11-22T14:56:50.872Z,4.80
2022-11-22T14:59:56.086Z,5.03
2022-11-22T15:02:47.128Z,5.33
2022-11-22T15:09:10.827Z,5.20
2022-11-22T15:09:11.525Z,5.93
2022-11-22T15:11:35.510Z,5.27
2022-11-22T15:14:33.671Z,4.90
2022-11-22T15:59:44.679Z,6.40
2022-11-22T16:02:18.986Z,6.00
2022-11-22T16:06:09.440Z,4.43
2022-11-22T16:07:47.255Z,4.37
2022-11-22T16:10:17.431Z,10.73
2022-11-22T16:12:44.715Z,4.50
2022-11-22T16:15:30.544Z,3.57
2022-11-22T16:18:13.101Z,3.60
2022-11-22T16:21:01.630Z,4.67
2022-11-22T16:23:30.414Z,4.20
2022-11-22T16:26:19.431Z,4.67
2022-11-22T16:28:48.429Z,4.33
2022-11-22T16:31:22.967Z,5.40
2022-11-22T16:33:51.952Z,4.20
2022-11-22T16:36:20.447Z,5.10
2022-11-22T16:38:47.626Z,4.30
2022-11-22T16:41:24.951Z,4.67
2022-11-22T16:44:06.507Z,5.60
2022-11-22T16:46:33.617Z,5.63
2022-11-22T16:49:00.868Z,6.40
2022-11-22T16:51:30.068Z,5.30
2022-11-22T16:54:00.147Z,5.87
2022-11-22T16:56:29.497Z,6.50
2022-11-22T16:58:57.991Z,5.40
2022-11-22T17:01:30.985Z,4.43
2022-11-22T17:03:59.233Z,4.90
2022-11-22T17:06:28.710Z,5.23
2022-11-22T17:08:58.431Z,5.40
2022-11-22T17:11:31.653Z,6.93
2022-11-22T17:13:59.911Z,6.90
2022-11-22T17:16:27.088Z,8.20
2022-11-22T17:18:54.291Z,7.37
2022-11-22T17:21:26.444Z,7.07
2022-11-22T17:23:56.066Z,7.17
2022-11-22T17:26:23.806Z,7.23
2022-11-22T17:28:51.091Z,6.67
2022-11-22T17:31:20.699Z,7.03
2022-11-22T17:33:56.764Z,4.90
2022-11-22T17:36:34.735Z,4.57
2022-11-22T17:39:04.810Z,4.87
2022-11-22T17:41:33.070Z,6.50
2022-11-22T17:44:00.759Z,5.57
2022-11-22T17:46:30.330Z,6.57
2022-11-22T17:48:59.690Z,5.70
2022-11-22T17:51:28.355Z,6.50
2022-11-22T17:53:58.353Z,7.60
2022-11-22T17:56:26.279Z,6.87
2022-11-22T17:58:53.458Z,10.00
2022-11-22T18:01:22.844Z,8.33
2022-11-22T18:03:50.297Z,4.40
2022-11-22T18:06:21.488Z,3.10
2022-11-22T18:08:48.676Z,5.07
2022-11-22T18:11:16.355Z,3.53
2022-11-22T18:13:44.186Z,2.87
2022-11-22T18:16:14.774Z,3.53
2022-11-22T18:18:56.675Z,7.70
2022-11-22T18:21:25.056Z,2.20
2022-11-22T18:23:52.186Z,1.87
2022-11-22T18:31:54.805Z,1.90
2022-11-22T18:34:23.023Z,1.87
2022-11-22T18:36:56.424Z,1.80
2022-11-22T18:39:28.591Z,1.90
2022-11-22T18:41:56.103Z,1.50
2022-11-22T18:44:23.238Z,1.63
2022-11-22T18:46:50.432Z,2.00
2022-11-22T18:49:17.753Z,1.60
2022-11-22T18:51:45.023Z,2.00
2022-11-22T18:54:12.524Z,2.70
2022-11-22T18:56:40.254Z,2.70
2022-11-22T18:59:10.051Z,3.57
2022-11-22T19:01:37.387Z,3.13
2022-11-22T19:04:05.147Z,2.53
2022-11-22T19:06:32.457Z,2.20
2022-11-22T19:09:00.948Z,3.33
2022-11-22T19:11:30.719Z,3.97
2022-11-22T19:13:58.174Z,2.87
2022-11-22T19:16:28.037Z,2.87
2022-11-22T19:18:55.535Z,3.67
2022-11-22T19:21:24.634Z,3.77
2022-11-22T19:23:52.537Z,4.40
2022-11-22T19:26:22.554Z,4.77
2022-11-22T19:28:53.635Z,5.30
2022-11-22T19:31:22.246Z,3.30
2022-11-22T19:33:49.794Z,4.57
2022-11-22T19:36:19.347Z,4.13
2022-11-22T19:38:46.991Z,3.10
2022-11-22T19:41:19.306Z,3.60
2022-11-22T19:43:48.059Z,3.30
2022-11-22T19:46:15.802Z,3.33
2022-11-22T19:48:46.969Z,2.87
2022-11-22T19:51:15.496Z,4.07
2022-11-22T19:53:43.168Z,3.27
2022-11-22T19:56:15.921Z,3.10
2022-11-22T19:58:44.773Z,3.30
2022-11-22T20:01:14.194Z,3.53
2022-11-22T20:03:43.423Z,3.63
2022-11-22T20:06:12.809Z,3.43
2022-11-22T20:08:40.184Z,3.40
2022-11-22T20:11:10.198Z,4.10
2022-11-22T20:13:40.226Z,5.90
2022-11-22T20:16:07.732Z,7.67
2022-11-22T20:18:35.523Z,7.70
2022-11-22T20:21:05.214Z,6.40
2022-11-22T20:23:33.587Z,5.63
2022-11-22T20:26:06.253Z,5.63
2022-11-22T20:28:33.471Z,6.17
2022-11-22T20:31:18.481Z,7.37
2022-11-22T20:33:48.898Z,8.27
2022-11-22T20:36:22.507Z,8.27
2022-11-22T20:38:50.953Z,7.80
2022-11-22T20:41:20.149Z,8.90
2022-11-22T20:43:47.526Z,7.63
2022-11-22T20:46:17.029Z,7.17
2022-11-22T20:48:47.730Z,7.43
2022-11-22T20:51:18.737Z,7.80
2022-11-22T20:53:46.539Z,7.70
2022-11-22T20:56:14.172Z,7.20
2022-11-22T20:58:42.244Z,8.73
2022-11-22T21:01:17.511Z,8.67
2022-11-22T21:03:45.646Z,8.63
2022-11-22T21:06:14.068Z,9.70
2022-11-22T21:08:41.834Z,8.60
2022-11-22T21:11:16.436Z,8.57
2022-11-22T21:13:44.988Z,8.40
2022-11-22T21:16:24.750Z,6.60
2022-11-22T21:18:53.392Z,6.03
2022-11-22T21:21:24.663Z,5.10
2022-11-22T21:23:53.952Z,5.17
2022-11-22T21:26:21.954Z,3.40
2022-11-22T21:28:49.783Z,3.30
2022-11-22T21:31:17.514Z,4.07
2022-11-22T21:33:45.772Z,3.27
2022-11-22T21:36:13.726Z,2.60
2022-11-22T21:38:41.258Z,3.40
2022-11-22T21:44:00.644Z,4.20
2022-11-22T21:46:27.817Z,4.67
2022-11-22T21:48:55.956Z,5.50
2022-11-22T21:51:25.845Z,5.13
2022-11-22T21:53:59.567Z,5.73
2022-11-22T21:56:27.049Z,6.63
2022-11-22T21:58:54.574Z,6.33
2022-11-22T22:01:22.497Z,5.80
2022-11-22T22:03:49.831Z,6.37
2022-11-22T22:06:17.127Z,5.90
2022-11-22T22:08:44.292Z,5.73
2022-11-22T22:11:12.508Z,6.07
2022-11-22T22:13:39.691Z,6.00
2022-11-22T22:16:07.387Z,5.80
2022-11-22T22:18:37.561Z,6.50
2022-11-22T22:21:06.159Z,9.00
2022-11-22T22:23:38.160Z,8.00
2022-11-22T22:26:07.749Z,8.70
2022-11-22T22:28:36.617Z,9.60
2022-11-22T22:31:14.442Z,8.77
2022-11-22T22:33:42.175Z,9.07
2022-11-22T22:36:11.419Z,6.40
2022-11-22T22:38:38.794Z,4.83
2022-11-22T22:41:06.806Z,3.73
2022-11-22T22:43:39.992Z,3.27
2022-11-22T22:46:12.490Z,4.03
2022-11-22T22:48:40.342Z,3.70
2022-11-22T22:51:19.158Z,2.93
2022-11-22T22:53:46.983Z,2.40
2022-11-22T22:56:15.936Z,1.60
2022-11-22T22:58:43.407Z,1.40
2022-11-22T23:01:15.083Z,1.43
2022-11-22T23:03:42.323Z,1.30
2022-11-22T23:06:11.783Z,1.40
2022-11-22T23:08:39.617Z,1.43
2022-11-22T23:11:09.265Z,1.40
2022-11-22T23:13:38.366Z,1.30
2022-11-22T23:16:07.416Z,1.20
2022-11-22T23:18:36.545Z,1.33
2022-11-22T23:21:06.281Z,1.33
2022-11-22T23:23:33.765Z,2.40
2022-11-22T23:26:06.686Z,2.27
2022-11-22T23:28:34.090Z,1.50
2022-11-22T23:31:09.520Z,2.40
2022-11-22T23:33:37.101Z,2.10
2022-11-22T23:36:06.545Z,2.30
2022-11-22T23:38:34.056Z,2.90
2022-11-22T23:41:01.807Z,3.03
2022-11-22T23:43:29.412Z,2.00
2022-11-22T23:45:58.801Z,1.77
2022-11-22T23:48:26.939Z,0.90
2022-11-22T23:50:54.390Z,0.87
2022-11-22T23:53:21.903Z,0.80
2022-11-22T23:55:49.019Z,0.80
2022-11-22T23:58:16.236Z,0.83
